sensor_id;sensor_type;location;lat;lon;timestamp;temperature;humidity
41694;DHT22;27377;50.666;9.150;2023-07-09T00:02:14;19.20;99.90
41694;DHT22;27377;50.666;9.150;2023-07-09T00:04:40;19.20;99.90
41694;DHT22;27377;50.666;9.150;2023-07-09T00:07:22;19.20;99.90
41694;DHT22;27377;50.666;9.150;2023-07-09T00:09:49;19.10;99.90
41694;DHT22;27377;50.666;9.150;2023-07-09T00:12:17;19.10;99.90
41694;DHT22;27377;50.666;9.150;2023-07-09T00:14:44;19.10;99.90
41694;DHT22;27377;50.666;9.150;2023-07-09T00:17:23;19.10;99.90
41694;DHT22;27377;50.666;9.150;2023-07-09T00:19:51;19.00;99.90
41694;DHT22;27377;50.666;9.150;2023-07-09T00:22:18;19.00;99.90
41694;DHT22;27377;50.666;9.150;2023-07-09T00:24:46;18.90;99.90
41694;DHT22;27377;50.666;9.150;2023-07-09T00:27:13;18.80;99.90
41694;DHT22;27377;50.666;9.150;2023-07-09T00:29:41;18.70;99.90
41694;DHT22;27377;50.666;9.150;2023-07-09T00:32:16;18.70;99.90
41694;DHT22;27377;50.666;9.150;2023-07-09T00:34:48;18.70;99.90
41694;DHT22;27377;50.666;9.150;2023-07-09T00:37:15;18.60;99.90
41694;DHT22;27377;50.666;9.150;2023-07-09T00:39:43;18.60;99.90
41694;DHT22;27377;50.666;9.150;2023-07-09T00:42:16;18.60;99.90
41694;DHT22;27377;50.666;9.150;2023-07-09T00:44:47;18.60;99.90
41694;DHT22;27377;50.666;9.150;2023-07-09T00:47:33;18.60;99.90
41694;DHT22;27377;50.666;9.150;2023-07-09T00:55:45;18.40;99.90
41694;DHT22;27377;50.666;9.150;2023-07-09T00:58:13;18.40;99.90
41694;DHT22;27377;50.666;9.150;2023-07-09T01:00:47;18.30;99.90
41694;DHT22;27377;50.666;9.150;2023-07-09T01:03:32;18.20;99.90
41694;DHT22;27377;50.666;9.150;2023-07-09T01:05:58;18.20;99.90
41694;DHT22;27377;50.666;9.150;2023-07-09T01:08:25;18.10;99.90
41694;DHT22;27377;50.666;9.150;2023-07-09T01:10:53;18.10;99.90
41694;DHT22;27377;50.666;9.150;2023-07-09T01:13:19;18.10;99.90
41694;DHT22;27377;50.666;9.150;2023-07-09T01:15:46;18.10;99.90
41694;DHT22;27377;50.666;9.150;2023-07-09T01:18:13;18.00;99.90
41694;DHT22;27377;50.666;9.150;2023-07-09T01:20:40;18.00;99.90
41694;DHT22;27377;50.666;9.150;2023-07-09T01:23:06;18.00;99.90
41694;DHT22;27377;50.666;9.150;2023-07-09T01:25:33;17.90;99.90
41694;DHT22;27377;50.666;9.150;2023-07-09T01:27:59;17.90;99.90
41694;DHT22;27377;50.666;9.150;2023-07-09T01:30:35;17.90;99.90
41694;DHT22;27377;50.666;9.150;2023-07-09T01:33:02;17.90;99.90
41694;DHT22;27377;50.666;9.150;2023-07-09T01:35:30;17.80;99.90
41694;DHT22;27377;50.666;9.150;2023-07-09T01:37:56;17.70;99.90
41694;DHT22;27377;50.666;9.150;2023-07-09T01:40:24;17.70;99.90
41694;DHT22;27377;50.666;9.150;2023-07-09T01:42:50;17.60;99.90
41694;DHT22;27377;50.666;9.150;2023-07-09T01:45:17;17.60;99.90
41694;DHT22;27377;50.666;9.150;2023-07-09T01:47:43;17.60;99.90
41694;DHT22;27377;50.666;9.150;2023-07-09T01:50:10;17.60;99.90
41694;DHT22;27377;50.666;9.150;2023-07-09T01:52:38;17.70;99.90
41694;DHT22;27377;50.666;9.150;2023-07-09T01:55:04;17.70;99.90
41694;DHT22;27377;50.666;9.150;2023-07-09T01:57:30;17.60;99.90
41694;DHT22;27377;50.666;9.150;2023-07-09T02:00:07;17.60;99.90
41694;DHT22;27377;50.666;9.150;2023-07-09T02:02:36;17.40;99.90
41694;DHT22;27377;50.666;9.150;2023-07-09T02:05:04;17.40;99.90
41694;DHT22;27377;50.666;9.150;2023-07-09T02:07:31;17.30;99.90
41694;DHT22;27377;50.666;9.150;2023-07-09T02:09:57;17.30;99.90
41694;DHT22;27377;50.666;9.150;2023-07-09T02:12:23;17.20;99.90
41694;DHT22;27377;50.666;9.150;2023-07-09T02:14:49;17.20;99.90
41694;DHT22;27377;50.666;9.150;2023-07-09T02:17:15;17.30;99.90
41694;DHT22;27377;50.666;9.150;2023-07-09T02:19:41;17.20;99.90
41694;DHT22;27377;50.666;9.150;2023-07-09T02:22:07;17.20;99.90
41694;DHT22;27377;50.666;9.150;2023-07-09T02:24:33;17.20;99.90
41694;DHT22;27377;50.666;9.150;2023-07-09T02:27:01;17.20;99.90
41694;DHT22;27377;50.666;9.150;2023-07-09T02:29:28;17.10;99.90
41694;DHT22;27377;50.666;9.150;2023-07-09T02:31:56;17.10;99.90
41694;DHT22;27377;50.666;9.150;2023-07-09T02:34:23;17.10;99.90
41694;DHT22;27377;50.666;9.150;2023-07-09T02:36:55;17.10;99.90
41694;DHT22;27377;50.666;9.150;2023-07-09T02:39:22;17.00;99.90
41694;DHT22;27377;50.666;9.150;2023-07-09T02:41:48;17.00;99.90
41694;DHT22;27377;50.666;9.150;2023-07-09T02:44:15;16.90;99.90
41694;DHT22;27377;50.666;9.150;2023-07-09T02:46:40;16.80;99.90
41694;DHT22;27377;50.666;9.150;2023-07-09T02:49:07;16.80;99.90
41694;DHT22;27377;50.666;9.150;2023-07-09T02:51:33;16.80;99.90
41694;DHT22;27377;50.666;9.150;2023-07-09T02:54:01;16.70;99.90
41694;DHT22;27377;50.666;9.150;2023-07-09T02:56:27;16.70;99.90
41694;DHT22;27377;50.666;9.150;2023-07-09T02:58:53;16.60;99.90
41694;DHT22;27377;50.666;9.150;2023-07-09T03:01:18;16.60;99.90
41694;DHT22;27377;50.666;9.150;2023-07-09T03:03:50;16.50;99.90
41694;DHT22;27377;50.666;9.150;2023-07-09T03:06:16;16.50;99.90
41694;DHT22;27377;50.666;9.150;2023-07-09T03:08:41;16.50;99.90
41694;DHT22;27377;50.666;9.150;2023-07-09T03:11:11;16.50;99.90
41694;DHT22;27377;50.666;9.150;2023-07-09T03:13:37;16.40;99.90
41694;DHT22;27377;50.666;9.150;2023-07-09T03:16:03;16.50;99.90
41694;DHT22;27377;50.666;9.150;2023-07-09T03:18:29;16.50;99.90
41694;DHT22;27377;50.666;9.150;2023-07-09T03:20:54;16.40;99.90
41694;DHT22;27377;50.666;9.150;2023-07-09T03:23:20;16.40;99.90
41694;DHT22;27377;50.666;9.150;2023-07-09T03:25:46;16.40;99.90
41694;DHT22;27377;50.666;9.150;2023-07-09T03:28:12;16.30;99.90
41694;DHT22;27377;50.666;9.150;2023-07-09T03:30:43;16.30;99.90
41694;DHT22;27377;50.666;9.150;2023-07-09T03:33:10;16.30;99.90
41694;DHT22;27377;50.666;9.150;2023-07-09T03:35:36;16.30;99.90
41694;DHT22;27377;50.666;9.150;2023-07-09T03:38:04;16.30;99.90
41694;DHT22;27377;50.666;9.150;2023-07-09T03:40:30;16.30;99.90
41694;DHT22;27377;50.666;9.150;2023-07-09T03:42:56;16.30;99.90
41694;DHT22;27377;50.666;9.150;2023-07-09T03:45:21;16.30;99.90
41694;DHT22;27377;50.666;9.150;2023-07-09T03:47:47;16.30;99.90
41694;DHT22;27377;50.666;9.150;2023-07-09T03:50:13;16.20;99.90
41694;DHT22;27377;50.666;9.150;2023-07-09T03:52:38;16.20;99.90
41694;DHT22;27377;50.666;9.150;2023-07-09T03:55:04;16.20;99.90
41694;DHT22;27377;50.666;9.150;2023-07-09T03:57:31;16.20;99.90
41694;DHT22;27377;50.666;9.150;2023-07-09T03:59:56;16.10;99.90
41694;DHT22;27377;50.666;9.150;2023-07-09T04:02:22;16.10;99.90
41694;DHT22;27377;50.666;9.150;2023-07-09T04:04:48;16.10;99.90
41694;DHT22;27377;50.666;9.150;2023-07-09T04:07:16;16.00;99.90
41694;DHT22;27377;50.666;9.150;2023-07-09T04:09:44;16.10;99.90
41694;DHT22;27377;50.666;9.150;2023-07-09T04:12:13;16.10;99.90
41694;DHT22;27377;50.666;9.150;2023-07-09T04:14:39;16.10;99.90
41694;DHT22;27377;50.666;9.150;2023-07-09T04:17:06;16.10;99.90
41694;DHT22;27377;50.666;9.150;2023-07-09T04:19:33;16.10;99.90
41694;DHT22;27377;50.666;9.150;2023-07-09T04:22:05;16.20;99.90
41694;DHT22;27377;50.666;9.150;2023-07-09T04:24:36;16.20;99.90
41694;DHT22;27377;50.666;9.150;2023-07-09T04:27:02;16.20;99.90
41694;DHT22;27377;50.666;9.150;2023-07-09T04:29:30;16.20;99.90
41694;DHT22;27377;50.666;9.150;2023-07-09T04:31:59;16.20;99.90
41694;DHT22;27377;50.666;9.150;2023-07-09T04:34:25;16.30;99.90
41694;DHT22;27377;50.666;9.150;2023-07-09T04:36:51;16.30;99.90
41694;DHT22;27377;50.666;9.150;2023-07-09T04:39:16;16.30;99.90
41694;DHT22;27377;50.666;9.150;2023-07-09T04:41:43;16.40;99.90
41694;DHT22;27377;50.666;9.150;2023-07-09T04:46:44;16.40;99.90
41694;DHT22;27377;50.666;9.150;2023-07-09T04:49:09;16.50;99.90
41694;DHT22;27377;50.666;9.150;2023-07-09T04:51:36;16.50;99.90
41694;DHT22;27377;50.666;9.150;2023-07-09T04:54:02;16.50;99.90
41694;DHT22;27377;50.666;9.150;2023-07-09T04:56:29;16.50;99.90
41694;DHT22;27377;50.666;9.150;2023-07-09T04:58:55;16.60;99.90
41694;DHT22;27377;50.666;9.150;2023-07-09T05:01:21;16.70;99.90
41694;DHT22;27377;50.666;9.150;2023-07-09T05:03:46;16.70;99.90
41694;DHT22;27377;50.666;9.150;2023-07-09T05:06:14;16.80;99.90
41694;DHT22;27377;50.666;9.150;2023-07-09T05:08:39;16.80;99.90
41694;DHT22;27377;50.666;9.150;2023-07-09T05:11:05;16.80;99.90
41694;DHT22;27377;50.666;9.150;2023-07-09T05:13:31;16.90;99.90
41694;DHT22;27377;50.666;9.150;2023-07-09T05:15:56;16.90;99.90
41694;DHT22;27377;50.666;9.150;2023-07-09T05:18:22;16.90;99.90
41694;DHT22;27377;50.666;9.150;2023-07-09T05:20:49;16.90;99.90
41694;DHT22;27377;50.666;9.150;2023-07-09T05:23:15;16.90;99.90
41694;DHT22;27377;50.666;9.150;2023-07-09T05:25:40;17.00;99.90
41694;DHT22;27377;50.666;9.150;2023-07-09T05:28:06;17.00;99.90
41694;DHT22;27377;50.666;9.150;2023-07-09T05:30:32;17.20;99.90
41694;DHT22;27377;50.666;9.150;2023-07-09T05:32:58;17.20;99.90
41694;DHT22;27377;50.666;9.150;2023-07-09T05:35:25;17.30;99.90
41694;DHT22;27377;50.666;9.150;2023-07-09T05:37:55;17.40;99.90
41694;DHT22;27377;50.666;9.150;2023-07-09T05:40:21;17.50;99.90
41694;DHT22;27377;50.666;9.150;2023-07-09T05:42:48;17.60;99.90
41694;DHT22;27377;50.666;9.150;2023-07-09T05:45:13;17.70;99.90
41694;DHT22;27377;50.666;9.150;2023-07-09T05:47:39;17.70;99.90
41694;DHT22;27377;50.666;9.150;2023-07-09T05:50:05;17.80;99.90
41694;DHT22;27377;50.666;9.150;2023-07-09T05:52:31;17.90;99.90
41694;DHT22;27377;50.666;9.150;2023-07-09T05:54:56;18.00;99.90
41694;DHT22;27377;50.666;9.150;2023-07-09T05:57:22;18.00;99.90
41694;DHT22;27377;50.666;9.150;2023-07-09T05:59:48;18.10;99.90
41694;DHT22;27377;50.666;9.150;2023-07-09T06:02:17;18.10;99.90
41694;DHT22;27377;50.666;9.150;2023-07-09T06:04:43;18.20;99.90
41694;DHT22;27377;50.666;9.150;2023-07-09T06:07:09;18.30;99.90
41694;DHT22;27377;50.666;9.150;2023-07-09T06:09:36;18.30;99.90
41694;DHT22;27377;50.666;9.150;2023-07-09T06:12:04;18.40;99.90
41694;DHT22;27377;50.666;9.150;2023-07-09T06:14:31;18.40;99.90
41694;DHT22;27377;50.666;9.150;2023-07-09T06:16:57;18.50;99.90
41694;DHT22;27377;50.666;9.150;2023-07-09T06:19:23;18.60;99.90
41694;DHT22;27377;50.666;9.150;2023-07-09T06:21:49;18.60;99.90
41694;DHT22;27377;50.666;9.150;2023-07-09T06:24:14;18.80;99.90
41694;DHT22;27377;50.666;9.150;2023-07-09T06:26:41;18.80;99.90
41694;DHT22;27377;50.666;9.150;2023-07-09T06:29:06;18.90;99.90
41694;DHT22;27377;50.666;9.150;2023-07-09T06:31:32;19.00;99.90
41694;DHT22;27377;50.666;9.150;2023-07-09T06:33:58;19.10;99.90
41694;DHT22;27377;50.666;9.150;2023-07-09T06:36:24;19.10;99.90
41694;DHT22;27377;50.666;9.150;2023-07-09T06:38:49;19.20;99.90
41694;DHT22;27377;50.666;9.150;2023-07-09T06:41:15;19.30;99.90
41694;DHT22;27377;50.666;9.150;2023-07-09T06:43:41;19.40;99.90
41694;DHT22;27377;50.666;9.150;2023-07-09T06:46:10;19.50;99.90
41694;DHT22;27377;50.666;9.150;2023-07-09T06:48:36;19.50;99.90
41694;DHT22;27377;50.666;9.150;2023-07-09T06:51:01;19.70;99.90
41694;DHT22;27377;50.666;9.150;2023-07-09T06:53:28;19.80;99.90
41694;DHT22;27377;50.666;9.150;2023-07-09T06:55:54;19.90;99.90
41694;DHT22;27377;50.666;9.150;2023-07-09T06:58:22;20.10;99.90
41694;DHT22;27377;50.666;9.150;2023-07-09T07:00:49;20.20;99.90
41694;DHT22;27377;50.666;9.150;2023-07-09T07:03:14;20.30;99.90
41694;DHT22;27377;50.666;9.150;2023-07-09T07:05:45;20.40;99.90
41694;DHT22;27377;50.666;9.150;2023-07-09T07:08:14;20.50;99.90
41694;DHT22;27377;50.666;9.150;2023-07-09T07:10:40;20.50;99.90
41694;DHT22;27377;50.666;9.150;2023-07-09T07:13:06;20.60;99.90
41694;DHT22;27377;50.666;9.150;2023-07-09T07:15:31;20.70;99.90
41694;DHT22;27377;50.666;9.150;2023-07-09T07:17:57;20.80;99.90
41694;DHT22;27377;50.666;9.150;2023-07-09T07:20:23;20.90;99.90
41694;DHT22;27377;50.666;9.150;2023-07-09T07:22:48;21.00;99.90
41694;DHT22;27377;50.666;9.150;2023-07-09T07:25:14;21.20;99.90
41694;DHT22;27377;50.666;9.150;2023-07-09T07:27:39;21.40;99.90
41694;DHT22;27377;50.666;9.150;2023-07-09T07:30:06;21.40;99.90
41694;DHT22;27377;50.666;9.150;2023-07-09T07:32:43;21.50;99.90
41694;DHT22;27377;50.666;9.150;2023-07-09T07:35:09;21.60;99.90
41694;DHT22;27377;50.666;9.150;2023-07-09T07:37:34;21.70;99.90
41694;DHT22;27377;50.666;9.150;2023-07-09T07:40:00;21.70;99.90
41694;DHT22;27377;50.666;9.150;2023-07-09T07:42:26;21.80;99.90
41694;DHT22;27377;50.666;9.150;2023-07-09T07:44:52;22.00;99.90
41694;DHT22;27377;50.666;9.150;2023-07-09T07:47:17;22.00;99.90
41694;DHT22;27377;50.666;9.150;2023-07-09T07:49:43;22.20;99.90
41694;DHT22;27377;50.666;9.150;2023-07-09T07:52:09;22.20;99.90
41694;DHT22;27377;50.666;9.150;2023-07-09T07:54:35;22.30;99.90
41694;DHT22;27377;50.666;9.150;2023-07-09T07:57:01;22.40;99.90
41694;DHT22;27377;50.666;9.150;2023-07-09T07:59:27;22.40;99.90
41694;DHT22;27377;50.666;9.150;2023-07-09T08:01:52;22.50;99.90
41694;DHT22;27377;50.666;9.150;2023-07-09T08:04:18;22.50;99.80
41694;DHT22;27377;50.666;9.150;2023-07-09T08:06:44;22.60;99.60
41694;DHT22;27377;50.666;9.150;2023-07-09T08:09:09;22.60;99.40
41694;DHT22;27377;50.666;9.150;2023-07-09T08:11:35;22.70;99.20
41694;DHT22;27377;50.666;9.150;2023-07-09T08:14:01;22.70;98.90
41694;DHT22;27377;50.666;9.150;2023-07-09T08:16:26;22.70;98.80
41694;DHT22;27377;50.666;9.150;2023-07-09T08:18:52;22.80;98.60
41694;DHT22;27377;50.666;9.150;2023-07-09T08:21:18;22.90;98.40
41694;DHT22;27377;50.666;9.150;2023-07-09T08:23:44;22.90;98.30
41694;DHT22;27377;50.666;9.150;2023-07-09T08:26:10;23.00;98.20
41694;DHT22;27377;50.666;9.150;2023-07-09T08:28:35;23.10;98.20
41694;DHT22;27377;50.666;9.150;2023-07-09T08:31:01;23.10;98.10
41694;DHT22;27377;50.666;9.150;2023-07-09T08:33:28;23.20;98.10
41694;DHT22;27377;50.666;9.150;2023-07-09T08:35:54;23.30;98.00
41694;DHT22;27377;50.666;9.150;2023-07-09T08:38:20;23.30;97.90
41694;DHT22;27377;50.666;9.150;2023-07-09T08:40:57;23.40;97.90
41694;DHT22;27377;50.666;9.150;2023-07-09T08:46:43;23.50;97.50
41694;DHT22;27377;50.666;9.150;2023-07-09T08:49:17;23.60;97.40
41694;DHT22;27377;50.666;9.150;2023-07-09T08:51:45;23.70;97.40
41694;DHT22;27377;50.666;9.150;2023-07-09T08:56:46;23.80;97.00
41694;DHT22;27377;50.666;9.150;2023-07-09T08:59:14;23.90;96.90
41694;DHT22;27377;50.666;9.150;2023-07-09T09:01:51;23.90;96.70
41694;DHT22;27377;50.666;9.150;2023-07-09T09:04:24;24.00;96.50
41694;DHT22;27377;50.666;9.150;2023-07-09T09:10:02;24.10;96.00
41694;DHT22;27377;50.666;9.150;2023-07-09T09:12:35;24.20;96.00
41694;DHT22;27377;50.666;9.150;2023-07-09T09:15:14;24.20;96.00
41694;DHT22;27377;50.666;9.150;2023-07-09T09:17:41;24.30;95.80
41694;DHT22;27377;50.666;9.150;2023-07-09T09:20:11;24.30;95.70
41694;DHT22;27377;50.666;9.150;2023-07-09T09:22:50;24.40;95.70
41694;DHT22;27377;50.666;9.150;2023-07-09T09:25:27;24.50;95.70
41694;DHT22;27377;50.666;9.150;2023-07-09T09:27:54;24.40;95.70
41694;DHT22;27377;50.666;9.150;2023-07-09T09:30:22;24.50;95.70
41694;DHT22;27377;50.666;9.150;2023-07-09T09:32:57;24.60;95.50
41694;DHT22;27377;50.666;9.150;2023-07-09T09:35:35;24.60;95.40
41694;DHT22;27377;50.666;9.150;2023-07-09T09:38:02;24.70;95.00
41694;DHT22;27377;50.666;9.150;2023-07-09T09:40:35;24.70;94.90
41694;DHT22;27377;50.666;9.150;2023-07-09T09:43:02;24.80;95.00
41694;DHT22;27377;50.666;9.150;2023-07-09T09:45:33;24.80;95.10
41694;DHT22;27377;50.666;9.150;2023-07-09T09:48:01;24.80;95.20
41694;DHT22;27377;50.666;9.150;2023-07-09T09:50:31;24.90;95.20
41694;DHT22;27377;50.666;9.150;2023-07-09T09:52:58;25.00;95.10
41694;DHT22;27377;50.666;9.150;2023-07-09T09:55:31;25.10;95.00
41694;DHT22;27377;50.666;9.150;2023-07-09T09:57:57;25.10;94.90
41694;DHT22;27377;50.666;9.150;2023-07-09T10:00:26;25.10;94.80
41694;DHT22;27377;50.666;9.150;2023-07-09T10:03:03;25.20;94.60
41694;DHT22;27377;50.666;9.150;2023-07-09T10:05:38;25.20;94.50
41694;DHT22;27377;50.666;9.150;2023-07-09T10:08:26;25.30;94.30
41694;DHT22;27377;50.666;9.150;2023-07-09T10:11:14;25.30;94.20
41694;DHT22;27377;50.666;9.150;2023-07-09T10:13:43;25.40;94.10
41694;DHT22;27377;50.666;9.150;2023-07-09T10:16:33;25.40;94.00
41694;DHT22;27377;50.666;9.150;2023-07-09T10:19:09;25.50;93.80
41694;DHT22;27377;50.666;9.150;2023-07-09T10:21:46;25.50;93.70
41694;DHT22;27377;50.666;9.150;2023-07-09T10:27:01;25.60;93.30
41694;DHT22;27377;50.666;9.150;2023-07-09T10:29:42;25.60;93.00
41694;DHT22;27377;50.666;9.150;2023-07-09T10:35:07;25.80;92.90
41694;DHT22;27377;50.666;9.150;2023-07-09T10:38:15;25.80;92.80
41694;DHT22;27377;50.666;9.150;2023-07-09T10:40:48;25.80;92.60
41694;DHT22;27377;50.666;9.150;2023-07-09T10:43:21;25.80;92.70
41694;DHT22;27377;50.666;9.150;2023-07-09T10:45:53;25.90;92.70
41694;DHT22;27377;50.666;9.150;2023-07-09T10:48:41;26.00;92.40
41694;DHT22;27377;50.666;9.150;2023-07-09T10:51:28;26.00;92.40
41694;DHT22;27377;50.666;9.150;2023-07-09T10:56:43;26.10;92.10
41694;DHT22;27377;50.666;9.150;2023-07-09T10:59:32;26.10;92.00
41694;DHT22;27377;50.666;9.150;2023-07-09T11:04:58;26.20;91.40
41694;DHT22;27377;50.666;9.150;2023-07-09T11:07:32;26.30;91.40
41694;DHT22;27377;50.666;9.150;2023-07-09T11:10:02;26.30;91.10
41694;DHT22;27377;50.666;9.150;2023-07-09T11:12:36;26.30;90.40
41694;DHT22;27377;50.666;9.150;2023-07-09T11:15:16;26.40;90.90
41694;DHT22;27377;50.666;9.150;2023-07-09T11:17:45;26.40;90.50
41694;DHT22;27377;50.666;9.150;2023-07-09T11:20:32;26.50;90.50
41694;DHT22;27377;50.666;9.150;2023-07-09T11:23:04;26.50;90.40
41694;DHT22;27377;50.666;9.150;2023-07-09T11:25:45;26.60;89.20
41694;DHT22;27377;50.666;9.150;2023-07-09T11:28:12;26.60;90.00
41694;DHT22;27377;50.666;9.150;2023-07-09T11:30:54;26.60;89.80
41694;DHT22;27377;50.666;9.150;2023-07-09T11:33:27;26.60;90.00
41694;DHT22;27377;50.666;9.150;2023-07-09T11:36:09;26.70;89.90
41694;DHT22;27377;50.666;9.150;2023-07-09T11:38:43;26.80;87.60
41694;DHT22;27377;50.666;9.150;2023-07-09T11:44:11;27.00;88.90
41694;DHT22;27377;50.666;9.150;2023-07-09T11:46:49;26.90;88.70
41694;DHT22;27377;50.666;9.150;2023-07-09T11:49:15;26.90;88.40
41694;DHT22;27377;50.666;9.150;2023-07-09T11:51:46;26.90;88.40
41694;DHT22;27377;50.666;9.150;2023-07-09T11:54:15;27.00;88.20
41694;DHT22;27377;50.666;9.150;2023-07-09T11:56:40;27.00;87.50
41694;DHT22;27377;50.666;9.150;2023-07-09T11:59:10;27.00;85.90
41694;DHT22;27377;50.666;9.150;2023-07-09T12:01:45;27.10;86.00
41694;DHT22;27377;50.666;9.150;2023-07-09T12:04:16;27.10;85.90
41694;DHT22;27377;50.666;9.150;2023-07-09T12:06:42;27.30;86.20
41694;DHT22;27377;50.666;9.150;2023-07-09T12:09:16;27.30;86.20
41694;DHT22;27377;50.666;9.150;2023-07-09T12:11:48;27.20;86.20
41694;DHT22;27377;50.666;9.150;2023-07-09T12:14:19;27.30;86.00
41694;DHT22;27377;50.666;9.150;2023-07-09T12:16:48;27.30;85.90
41694;DHT22;27377;50.666;9.150;2023-07-09T12:19:17;27.30;85.90
41694;DHT22;27377;50.666;9.150;2023-07-09T12:21:45;27.30;85.00
41694;DHT22;27377;50.666;9.150;2023-07-09T12:24:30;27.40;85.10
41694;DHT22;27377;50.666;9.150;2023-07-09T12:27:03;27.40;84.80
41694;DHT22;27377;50.666;9.150;2023-07-09T12:29:31;27.40;84.30
41694;DHT22;27377;50.666;9.150;2023-07-09T12:32:03;27.40;82.90
41694;DHT22;27377;50.666;9.150;2023-07-09T12:34:31;27.40;81.10
41694;DHT22;27377;50.666;9.150;2023-07-09T12:36:57;27.40;81.50
41694;DHT22;27377;50.666;9.150;2023-07-09T12:39:29;27.40;82.00
41694;DHT22;27377;50.666;9.150;2023-07-09T12:42:00;27.40;81.60
41694;DHT22;27377;50.666;9.150;2023-07-09T12:44:26;27.40;81.40
41694;DHT22;27377;50.666;9.150;2023-07-09T12:46:55;27.40;81.60
41694;DHT22;27377;50.666;9.150;2023-07-09T12:49:29;27.60;82.50
41694;DHT22;27377;50.666;9.150;2023-07-09T12:52:01;27.60;82.50
41694;DHT22;27377;50.666;9.150;2023-07-09T12:54:29;27.70;82.80
41694;DHT22;27377;50.666;9.150;2023-07-09T12:56:56;27.70;83.10
41694;DHT22;27377;50.666;9.150;2023-07-09T12:59:27;27.70;83.00
41694;DHT22;27377;50.666;9.150;2023-07-09T13:01:57;27.80;83.10
41694;DHT22;27377;50.666;9.150;2023-07-09T13:04:33;27.80;83.30
41694;DHT22;27377;50.666;9.150;2023-07-09T13:07:01;27.80;83.30
41694;DHT22;27377;50.666;9.150;2023-07-09T13:09:27;27.80;83.00
41694;DHT22;27377;50.666;9.150;2023-07-09T13:11:57;27.90;83.20
41694;DHT22;27377;50.666;9.150;2023-07-09T13:14:26;27.90;83.40
41694;DHT22;27377;50.666;9.150;2023-07-09T13:16:53;27.90;83.50
41694;DHT22;27377;50.666;9.150;2023-07-09T13:19:26;28.00;83.20
41694;DHT22;27377;50.666;9.150;2023-07-09T13:21:52;28.00;82.00
41694;DHT22;27377;50.666;9.150;2023-07-09T13:24:38;28.00;82.30
41694;DHT22;27377;50.666;9.150;2023-07-09T13:27:04;28.10;81.60
41694;DHT22;27377;50.666;9.150;2023-07-09T13:29:33;28.20;81.20
41694;DHT22;27377;50.666;9.150;2023-07-09T13:31:59;28.30;81.00
41694;DHT22;27377;50.666;9.150;2023-07-09T13:34:27;28.20;80.60
41694;DHT22;27377;50.666;9.150;2023-07-09T13:36:54;28.30;80.40
41694;DHT22;27377;50.666;9.150;2023-07-09T13:39:22;28.30;79.80
41694;DHT22;27377;50.666;9.150;2023-07-09T13:41:50;28.30;79.80
41694;DHT22;27377;50.666;9.150;2023-07-09T13:44:24;28.30;78.50
41694;DHT22;27377;50.666;9.150;2023-07-09T13:46:54;28.40;79.30
41694;DHT22;27377;50.666;9.150;2023-07-09T13:49:22;28.50;79.60
41694;DHT22;27377;50.666;9.150;2023-07-09T13:51:49;28.40;79.10
41694;DHT22;27377;50.666;9.150;2023-07-09T13:54:18;28.50;79.30
41694;DHT22;27377;50.666;9.150;2023-07-09T13:56:45;28.50;78.90
41694;DHT22;27377;50.666;9.150;2023-07-09T13:59:16;28.50;78.80
41694;DHT22;27377;50.666;9.150;2023-07-09T14:01:43;28.50;78.90
41694;DHT22;27377;50.666;9.150;2023-07-09T14:04:11;28.60;78.40
41694;DHT22;27377;50.666;9.150;2023-07-09T14:06:38;28.60;78.40
41694;DHT22;27377;50.666;9.150;2023-07-09T14:09:04;28.60;78.20
41694;DHT22;27377;50.666;9.150;2023-07-09T14:11:29;28.60;77.60
41694;DHT22;27377;50.666;9.150;2023-07-09T14:13:55;28.60;77.90
41694;DHT22;27377;50.666;9.150;2023-07-09T14:16:21;28.60;77.70
41694;DHT22;27377;50.666;9.150;2023-07-09T14:18:47;28.60;77.10
41694;DHT22;27377;50.666;9.150;2023-07-09T14:21:22;28.70;77.00
41694;DHT22;27377;50.666;9.150;2023-07-09T14:23:49;28.70;76.60
41694;DHT22;27377;50.666;9.150;2023-07-09T14:26:14;28.70;76.50
41694;DHT22;27377;50.666;9.150;2023-07-09T14:28:40;28.80;76.10
41694;DHT22;27377;50.666;9.150;2023-07-09T14:31:27;28.80;76.10
41694;DHT22;27377;50.666;9.150;2023-07-09T14:33:54;28.80;75.00
41694;DHT22;27377;50.666;9.150;2023-07-09T14:36:20;28.90;75.40
41694;DHT22;27377;50.666;9.150;2023-07-09T14:38:46;28.90;75.60
41694;DHT22;27377;50.666;9.150;2023-07-09T14:41:26;28.90;75.80
41694;DHT22;27377;50.666;9.150;2023-07-09T14:43:53;28.90;75.90
41694;DHT22;27377;50.666;9.150;2023-07-09T14:46:19;28.90;75.40
41694;DHT22;27377;50.666;9.150;2023-07-09T14:48:45;29.00;74.40
41694;DHT22;27377;50.666;9.150;2023-07-09T14:51:14;29.10;73.90
41694;DHT22;27377;50.666;9.150;2023-07-09T14:53:43;29.10;74.60
41694;DHT22;27377;50.666;9.150;2023-07-09T14:56:11;29.10;75.00
41694;DHT22;27377;50.666;9.150;2023-07-09T14:58:38;29.10;74.80
41694;DHT22;27377;50.666;9.150;2023-07-09T15:01:04;29.10;74.20
41694;DHT22;27377;50.666;9.150;2023-07-09T15:03:29;29.10;74.50
41694;DHT22;27377;50.666;9.150;2023-07-09T15:05:55;29.00;74.00
41694;DHT22;27377;50.666;9.150;2023-07-09T15:08:23;29.00;73.60
41694;DHT22;27377;50.666;9.150;2023-07-09T15:10:50;28.90;73.20
41694;DHT22;27377;50.666;9.150;2023-07-09T15:15:49;28.90;73.10
41694;DHT22;27377;50.666;9.150;2023-07-09T15:18:15;28.90;72.80
41694;DHT22;27377;50.666;9.150;2023-07-09T15:20:50;28.90;72.90
41694;DHT22;27377;50.666;9.150;2023-07-09T15:23:16;29.00;72.30
41694;DHT22;27377;50.666;9.150;2023-07-09T15:25:42;29.00;72.90
41694;DHT22;27377;50.666;9.150;2023-07-09T15:28:10;29.00;72.80
41694;DHT22;27377;50.666;9.150;2023-07-09T15:30:36;29.00;73.10
41694;DHT22;27377;50.666;9.150;2023-07-09T15:33:02;29.00;72.80
41694;DHT22;27377;50.666;9.150;2023-07-09T15:35:34;29.00;72.70
41694;DHT22;27377;50.666;9.150;2023-07-09T15:38:03;28.90;72.80
41694;DHT22;27377;50.666;9.150;2023-07-09T15:40:33;28.90;72.40
41694;DHT22;27377;50.666;9.150;2023-07-09T15:43:05;28.90;72.00
41694;DHT22;27377;50.666;9.150;2023-07-09T15:45:31;28.90;71.70
41694;DHT22;27377;50.666;9.150;2023-07-09T15:47:56;28.80;71.70
41694;DHT22;27377;50.666;9.150;2023-07-09T15:50:27;28.80;72.20
41694;DHT22;27377;50.666;9.150;2023-07-09T15:52:53;28.80;71.40
41694;DHT22;27377;50.666;9.150;2023-07-09T15:55:24;28.80;71.40
41694;DHT22;27377;50.666;9.150;2023-07-09T15:57:51;28.80;71.30
41694;DHT22;27377;50.666;9.150;2023-07-09T16:02:45;28.70;71.30
41694;DHT22;27377;50.666;9.150;2023-07-09T16:07:41;28.70;71.80
41694;DHT22;27377;50.666;9.150;2023-07-09T16:10:07;28.70;72.10
41694;DHT22;27377;50.666;9.150;2023-07-09T16:12:32;28.70;72.50
41694;DHT22;27377;50.666;9.150;2023-07-09T16:14:58;28.70;72.80
41694;DHT22;27377;50.666;9.150;2023-07-09T16:17:23;28.70;73.10
41694;DHT22;27377;50.666;9.150;2023-07-09T16:19:49;28.70;73.20